sensor_id;sensor_type;location;lat;lon;timestamp;pressure;altitude;pressure_sealevel;temperature;humidity
37450;BME280;23309;52.582;13.406;2022-11-15T00:02:26;101002.94;;;14.72;45.89
37450;BME280;23309;52.582;13.406;2022-11-15T00:04:52;101006.88;;;14.60;45.98
37450;BME280;23309;52.582;13.406;2022-11-15T00:07:18;101019.16;;;14.63;46.20
37450;BME280;23309;52.582;13.406;2022-11-15T00:09:44;101023.84;;;14.61;46.02
37450;BME280;23309;52.582;13.406;2022-11-15T00:12:13;101015.94;;;14.59;45.96
37450;BME280;23309;52.582;13.406;2022-11-15T00:14:39;101001.25;;;14.54;46.37
37450;BME280;23309;52.582;13.406;2022-11-15T00:17:05;100993.34;;;14.52;46.44
37450;BME280;23309;52.582;13.406;2022-11-15T00:19:31;101007.16;;;14.57;46.24
37450;BME280;23309;52.582;13.406;2022-11-15T00:21:57;101002.13;;;14.54;46.00
37450;BME280;23309;52.582;13.406;2022-11-15T00:24:25;100997.25;;;14.58;46.00
37450;BME280;23309;52.582;13.406;2022-11-15T00:26:52;100982.44;;;14.54;45.97
37450;BME280;23309;52.582;13.406;2022-11-15T00:29:20;100960.84;;;14.46;45.75
37450;BME280;23309;52.582;13.406;2022-11-15T00:31:46;100966.72;;;14.41;46.02
37450;BME280;23309;52.582;13.406;2022-11-15T00:34:13;100983.50;;;14.43;46.28
37450;BME280;23309;52.582;13.406;2022-11-15T00:36:39;100966.00;;;14.39;45.85
37450;BME280;23309;52.582;13.406;2022-11-15T00:39:05;100965.31;;;14.37;46.27
37450;BME280;23309;52.582;13.406;2022-11-15T00:41:31;100968.69;;;14.39;46.02
37450;BME280;23309;52.582;13.406;2022-11-15T00:43:57;100975.06;;;14.38;46.35
37450;BME280;23309;52.582;13.406;2022-11-15T00:46:26;100976.97;;;14.46;46.17
37450;BME280;23309;52.582;13.406;2022-11-15T00:48:52;100966.00;;;14.39;46.32
37450;BME280;23309;52.582;13.406;2022-11-15T00:51:18;100968.53;;;14.41;46.14
37450;BME280;23309;52.582;13.406;2022-11-15T00:53:44;100965.19;;;14.39;46.39
37450;BME280;23309;52.582;13.406;2022-11-15T00:56:10;100958.41;;;14.35;46.51
37450;BME280;23309;52.582;13.406;2022-11-15T00:58:36;100956.88;;;14.32;46.63
37450;BME280;23309;52.582;13.406;2022-11-15T01:01:08;100953.56;;;14.38;46.09
37450;BME280;23309;52.582;13.406;2022-11-15T01:03:38;100951.41;;;14.42;45.82
37450;BME280;23309;52.582;13.406;2022-11-15T01:06:06;100960.25;;;14.34;46.23
37450;BME280;23309;52.582;13.406;2022-11-15T01:08:32;100958.41;;;14.35;46.23
37450;BME280;23309;52.582;13.406;2022-11-15T01:11:01;100956.78;;;14.42;45.95
37450;BME280;23309;52.582;13.406;2022-11-15T01:13:30;100963.03;;;14.42;45.92
37450;BME280;23309;52.582;13.406;2022-11-15T01:15:57;100958.66;;;14.41;46.08
37450;BME280;23309;52.582;13.406;2022-11-15T01:18:23;100950.88;;;14.38;45.92
37450;BME280;23309;52.582;13.406;2022-11-15T01:20:51;100941.00;;;14.39;45.96
37450;BME280;23309;52.582;13.406;2022-11-15T01:23:17;100942.16;;;14.36;46.03
37450;BME280;23309;52.582;13.406;2022-11-15T01:25:43;100935.38;;;14.32;45.95
37450;BME280;23309;52.582;13.406;2022-11-15T01:28:09;100941.44;;;14.34;46.27
37450;BME280;23309;52.582;13.406;2022-11-15T01:30:36;100944.97;;;14.35;45.88
37450;BME280;23309;52.582;13.406;2022-11-15T01:33:02;100923.25;;;14.28;46.16
37450;BME280;23309;52.582;13.406;2022-11-15T01:35:28;100932.38;;;14.35;45.94
37450;BME280;23309;52.582;13.406;2022-11-15T01:37:57;100925.16;;;14.36;45.93
37450;BME280;23309;52.582;13.406;2022-11-15T01:40:23;100913.66;;;14.26;45.91
37450;BME280;23309;52.582;13.406;2022-11-15T01:42:49;100921.56;;;14.27;46.00
37450;BME280;23309;52.582;13.406;2022-11-15T01:45:16;100902.28;;;14.14;46.45
37450;BME280;23309;52.582;13.406;2022-11-15T01:47:45;100898.28;;;14.18;46.53
37450;BME280;23309;52.582;13.406;2022-11-15T01:50:17;100909.66;;;14.30;46.31
37450;BME280;23309;52.582;13.406;2022-11-15T01:52:45;100907.44;;;14.25;46.12
37450;BME280;23309;52.582;13.406;2022-11-15T01:55:18;100897.97;;;14.21;46.04
37450;BME280;23309;52.582;13.406;2022-11-15T01:57:48;100892.13;;;14.08;46.23
37450;BME280;23309;52.582;13.406;2022-11-15T02:00:16;100895.50;;;14.10;46.44
37450;BME280;23309;52.582;13.406;2022-11-15T02:02:43;100887.38;;;14.02;46.26
37450;BME280;23309;52.582;13.406;2022-11-15T02:05:09;100887.91;;;14.06;46.36
37450;BME280;23309;52.582;13.406;2022-11-15T02:07:36;100883.38;;;14.06;46.20
37450;BME280;23309;52.582;13.406;2022-11-15T02:10:08;100883.75;;;14.11;46.21
37450;BME280;23309;52.582;13.406;2022-11-15T02:12:37;100891.97;;;14.10;46.23
37450;BME280;23309;52.582;13.406;2022-11-15T02:15:05;100873.25;;;14.00;46.28
37450;BME280;23309;52.582;13.406;2022-11-15T02:17:48;100876.00;;;14.08;46.26
37450;BME280;23309;52.582;13.406;2022-11-15T02:20:44;100883.72;;;14.21;45.65
37450;BME280;23309;52.582;13.406;2022-11-15T02:23:41;100880.22;;;14.11;45.44
37450;BME280;23309;52.582;13.406;2022-11-15T02:26:43;100885.28;;;14.14;45.75
37450;BME280;23309;52.582;13.406;2022-11-15T02:29:30;100890.72;;;14.04;45.69
37450;BME280;23309;52.582;13.406;2022-11-15T02:32:09;100890.59;;;14.06;45.76
37450;BME280;23309;52.582;13.406;2022-11-15T02:34:48;100878.47;;;14.02;45.67
37450;BME280;23309;52.582;13.406;2022-11-15T02:37:21;100891.75;;;14.03;45.70
37450;BME280;23309;52.582;13.406;2022-11-15T02:39:57;100875.00;;;13.92;45.56
37450;BME280;23309;52.582;13.406;2022-11-15T02:42:30;100887.66;;;13.99;45.43
37450;BME280;23309;52.582;13.406;2022-11-15T02:45:01;100879.09;;;13.96;45.53
37450;BME280;23309;52.582;13.406;2022-11-15T02:47:37;100884.84;;;14.01;45.64
37450;BME280;23309;52.582;13.406;2022-11-15T02:50:10;100861.69;;;13.82;45.51
37450;BME280;23309;52.582;13.406;2022-11-15T02:52:38;100879.31;;;13.85;45.99
37450;BME280;23309;52.582;13.406;2022-11-15T02:55:05;100871.72;;;13.80;45.90
37450;BME280;23309;52.582;13.406;2022-11-15T02:57:54;100870.66;;;13.91;45.60
37450;BME280;23309;52.582;13.406;2022-11-15T03:00:27;100868.63;;;13.75;45.95
37450;BME280;23309;52.582;13.406;2022-11-15T03:03:29;100875.16;;;13.90;45.85
37450;BME280;23309;52.582;13.406;2022-11-15T03:06:09;100874.91;;;13.84;45.63
37450;BME280;23309;52.582;13.406;2022-11-15T03:08:48;100862.66;;;13.81;45.81
37450;BME280;23309;52.582;13.406;2022-11-15T03:11:19;100872.56;;;13.81;45.75
37450;BME280;23309;52.582;13.406;2022-11-15T03:13:54;100860.97;;;13.80;45.62
37450;BME280;23309;52.582;13.406;2022-11-15T03:16:27;100876.94;;;13.82;45.77
37450;BME280;23309;52.582;13.406;2022-11-15T03:19:03;100861.44;;;13.76;45.91
37450;BME280;23309;52.582;13.406;2022-11-15T03:21:31;100869.56;;;13.66;46.24
37450;BME280;23309;52.582;13.406;2022-11-15T03:24:03;100874.88;;;13.76;45.86
37450;BME280;23309;52.582;13.406;2022-11-15T03:26:33;100850.75;;;13.66;46.05
37450;BME280;23309;52.582;13.406;2022-11-15T03:29:04;100856.66;;;13.70;45.88
37450;BME280;23309;52.582;13.406;2022-11-15T03:31:36;100859.72;;;13.75;45.93
37450;BME280;23309;52.582;13.406;2022-11-15T03:34:12;100862.25;;;13.76;45.85
37450;BME280;23309;52.582;13.406;2022-11-15T03:36:41;100864.28;;;13.74;45.68
37450;BME280;23309;52.582;13.406;2022-11-15T03:39:08;100856.13;;;13.66;45.53
37450;BME280;23309;52.582;13.406;2022-11-15T03:41:40;100861.13;;;13.79;45.55
37450;BME280;23309;52.582;13.406;2022-11-15T03:44:15;100852.38;;;13.77;45.43
37450;BME280;23309;52.582;13.406;2022-11-15T03:46:50;100857.38;;;13.72;45.72
37450;BME280;23309;52.582;13.406;2022-11-15T03:49:28;100845.78;;;13.71;45.41
37450;BME280;23309;52.582;13.406;2022-11-15T03:51:57;100848.75;;;13.68;45.48
37450;BME280;23309;52.582;13.406;2022-11-15T03:54:24;100852.16;;;13.70;45.45
37450;BME280;23309;52.582;13.406;2022-11-15T03:56:50;100848.94;;;13.67;45.68
37450;BME280;23309;52.582;13.406;2022-11-15T03:59:16;100846.25;;;13.67;45.37
37450;BME280;23309;52.582;13.406;2022-11-15T04:01:42;100850.47;;;13.69;45.35
37450;BME280;23309;52.582;13.406;2022-11-15T04:04:08;100846.06;;;13.68;45.23
37450;BME280;23309;52.582;13.406;2022-11-15T04:06:37;100846.25;;;13.67;45.34
37450;BME280;23309;52.582;13.406;2022-11-15T04:09:04;100838.94;;;13.59;45.27
37450;BME280;23309;52.582;13.406;2022-11-15T04:11:30;100838.41;;;13.56;45.18
37450;BME280;23309;52.582;13.406;2022-11-15T04:13:56;100836.41;;;13.58;45.17
37450;BME280;23309;52.582;13.406;2022-11-15T04:16:22;100854.06;;;13.60;45.28
37450;BME280;23309;52.582;13.406;2022-11-15T04:18:48;100842.47;;;13.60;45.00
37450;BME280;23309;52.582;13.406;2022-11-15T04:21:14;100842.75;;;13.57;45.24
37450;BME280;23309;52.582;13.406;2022-11-15T04:23:43;100839.69;;;13.52;45.10
37450;BME280;23309;52.582;13.406;2022-11-15T04:26:11;100829.97;;;13.51;45.02
37450;BME280;23309;52.582;13.406;2022-11-15T04:28:38;100832.53;;;13.43;45.41
37450;BME280;23309;52.582;13.406;2022-11-15T04:31:04;100835.47;;;13.49;45.13
37450;BME280;23309;52.582;13.406;2022-11-15T04:33:30;100836.63;;;13.47;45.15
37450;BME280;23309;52.582;13.406;2022-11-15T04:35:56;100835.63;;;13.48;45.29
37450;BME280;23309;52.582;13.406;2022-11-15T04:38:22;100827.31;;;13.41;45.10
37450;BME280;23309;52.582;13.406;2022-11-15T04:40:51;100834.94;;;13.46;45.05
37450;BME280;23309;52.582;13.406;2022-11-15T04:43:17;100836.22;;;13.42;45.03
37450;BME280;23309;52.582;13.406;2022-11-15T04:45:44;100821.28;;;13.39;45.19
37450;BME280;23309;52.582;13.406;2022-11-15T04:48:10;100830.88;;;13.42;45.30
37450;BME280;23309;52.582;13.406;2022-11-15T04:50:36;100827.66;;;13.38;44.94
37450;BME280;23309;52.582;13.406;2022-11-15T04:53:02;100805.69;;;13.25;45.07
37450;BME280;23309;52.582;13.406;2022-11-15T04:55:28;100821.19;;;13.31;45.20
37450;BME280;23309;52.582;13.406;2022-11-15T04:58:02;100827.13;;;13.35;45.25
37450;BME280;23309;52.582;13.406;2022-11-15T05:00:29;100811.69;;;13.19;45.42
37450;BME280;23309;52.582;13.406;2022-11-15T05:02:56;100817.03;;;13.19;45.29
37450;BME280;23309;52.582;13.406;2022-11-15T05:05:23;100823.09;;;13.21;45.59
37450;BME280;23309;52.582;13.406;2022-11-15T05:07:50;100823.22;;;13.20;45.46
37450;BME280;23309;52.582;13.406;2022-11-15T05:10:16;100825.91;;;13.20;45.54
37450;BME280;23309;52.582;13.406;2022-11-15T05:12:42;100824.09;;;13.20;45.24
37450;BME280;23309;52.582;13.406;2022-11-15T05:15:11;100826.31;;;13.25;45.32
37450;BME280;23309;52.582;13.406;2022-11-15T05:17:37;100822.69;;;13.16;45.50
37450;BME280;23309;52.582;13.406;2022-11-15T05:20:05;100834.66;;;13.22;45.11
37450;BME280;23309;52.582;13.406;2022-11-15T05:22:31;100832.81;;;13.22;45.58
37450;BME280;23309;52.582;13.406;2022-11-15T05:24:57;100827.16;;;13.25;45.45
37450;BME280;23309;52.582;13.406;2022-11-15T05:27:23;100830.84;;;13.24;45.14
37450;BME280;23309;52.582;13.406;2022-11-15T05:29:49;100829.31;;;13.22;45.41
37450;BME280;23309;52.582;13.406;2022-11-15T05:32:18;100820.25;;;13.23;45.45
37450;BME280;23309;52.582;13.406;2022-11-15T05:34:44;100820.88;;;13.17;45.13
37450;BME280;23309;52.582;13.406;2022-11-15T05:37:11;100824.91;;;13.21;45.21
37450;BME280;23309;52.582;13.406;2022-11-15T05:39:37;100834.50;;;13.23;45.51
37450;BME280;23309;52.582;13.406;2022-11-15T05:42:07;100819.53;;;13.21;45.03
37450;BME280;23309;52.582;13.406;2022-11-15T05:44:37;100811.44;;;13.13;45.10
37450;BME280;23309;52.582;13.406;2022-11-15T05:47:06;100826.91;;;13.19;45.21
37450;BME280;23309;52.582;13.406;2022-11-15T05:49:38;100810.72;;;13.11;45.21
37450;BME280;23309;52.582;13.406;2022-11-15T05:52:08;100816.63;;;13.14;45.30
37450;BME280;23309;52.582;13.406;2022-11-15T05:54:36;100812.81;;;13.17;45.32
37450;BME280;23309;52.582;13.406;2022-11-15T05:57:07;100832.66;;;13.24;45.14
37450;BME280;23309;52.582;13.406;2022-11-15T05:59:33;100831.97;;;13.22;45.18
37450;BME280;23309;52.582;13.406;2022-11-15T06:02:00;100821.28;;;13.12;45.34
37450;BME280;23309;52.582;13.406;2022-11-15T06:04:27;100834.66;;;13.22;45.08
37450;BME280;23309;52.582;13.406;2022-11-15T06:06:55;100837.03;;;13.25;45.17
37450;BME280;23309;52.582;13.406;2022-11-15T06:09:23;100835.63;;;13.21;45.08
37450;BME280;23309;52.582;13.406;2022-11-15T06:11:49;100836.78;;;13.18;45.31
37450;BME280;23309;52.582;13.406;2022-11-15T06:14:15;100830.34;;;13.11;45.53
37450;BME280;23309;52.582;13.406;2022-11-15T06:16:42;100823.44;;;13.09;45.53
37450;BME280;23309;52.582;13.406;2022-11-15T06:19:08;100825.97;;;13.10;45.47
37450;BME280;23309;52.582;13.406;2022-11-15T06:21:34;100824.97;;;13.11;45.88
37450;BME280;23309;52.582;13.406;2022-11-15T06:24:04;100847.63;;;13.26;45.80
37450;BME280;23309;52.582;13.406;2022-11-15T06:26:30;100825.22;;;13.18;45.92
37450;BME280;23309;52.582;13.406;2022-11-15T06:28:57;100819.75;;;13.10;46.03
37450;BME280;23309;52.582;13.406;2022-11-15T06:31:23;100832.13;;;13.20;46.16
37450;BME280;23309;52.582;13.406;2022-11-15T06:33:49;100841.25;;;13.27;46.09
37450;BME280;23309;52.582;13.406;2022-11-15T06:36:16;100836.34;;;13.23;46.54
37450;BME280;23309;52.582;13.406;2022-11-15T06:38:43;100823.47;;;13.26;46.30
37450;BME280;23309;52.582;13.406;2022-11-15T06:41:13;100833.16;;;13.37;46.30
37450;BME280;23309;52.582;13.406;2022-11-15T06:43:40;100850.03;;;13.47;46.29
37450;BME280;23309;52.582;13.406;2022-11-15T06:46:07;100844.81;;;13.45;46.28
37450;BME280;23309;52.582;13.406;2022-11-15T06:48:34;100841.53;;;13.51;46.27
37450;BME280;23309;52.582;13.406;2022-11-15T06:51:02;100840.06;;;13.57;45.96
37450;BME280;23309;52.582;13.406;2022-11-15T06:53:32;100837.56;;;13.55;46.10
37450;BME280;23309;52.582;13.406;2022-11-15T06:56:00;100829.66;;;13.54;46.24
37450;BME280;23309;52.582;13.406;2022-11-15T06:58:29;100835.13;;;13.62;46.32
37450;BME280;23309;52.582;13.406;2022-11-15T07:00:59;100840.69;;;13.68;46.21
37450;BME280;23309;52.582;13.406;2022-11-15T07:03:25;100837.19;;;13.68;46.11
37450;BME280;23309;52.582;13.406;2022-11-15T07:05:53;100851.63;;;13.84;46.35
37450;BME280;23309;52.582;13.406;2022-11-15T07:08:19;100852.47;;;13.85;46.01
37450;BME280;23309;52.582;13.406;2022-11-15T07:10:45;100844.66;;;13.91;46.16
37450;BME280;23309;52.582;13.406;2022-11-15T07:13:11;100840.81;;;13.94;45.83
37450;BME280;23309;52.582;13.406;2022-11-15T07:15:40;100852.00;;;14.07;45.88
37450;BME280;23309;52.582;13.406;2022-11-15T07:18:06;100867.72;;;14.19;45.55
37450;BME280;23309;52.582;13.406;2022-11-15T07:20:32;100849.06;;;14.18;45.75
37450;BME280;23309;52.582;13.406;2022-11-15T07:23:00;100860.44;;;14.29;45.89
37450;BME280;23309;52.582;13.406;2022-11-15T07:25:26;100871.63;;;14.42;45.54
37450;BME280;23309;52.582;13.406;2022-11-15T07:27:55;100869.16;;;14.49;45.52
37450;BME280;23309;52.582;13.406;2022-11-15T07:30:21;100872.22;;;14.54;45.60
37450;BME280;23309;52.582;13.406;2022-11-15T07:32:53;100865.16;;;14.78;45.82
37450;BME280;23309;52.582;13.406;2022-11-15T07:35:19;100853.81;;;14.92;46.21
37450;BME280;23309;52.582;13.406;2022-11-15T07:37:54;100863.47;;;15.36;45.10
37450;BME280;23309;52.582;13.406;2022-11-15T07:40:20;100858.16;;;15.60;44.22
37450;BME280;23309;52.582;13.406;2022-11-15T07:42:46;100848.28;;;15.93;43.93
37450;BME280;23309;52.582;13.406;2022-11-15T07:45:13;100867.53;;;16.38;43.38
37450;BME280;23309;52.582;13.406;2022-11-15T07:47:39;100852.69;;;16.66;42.27
37450;BME280;23309;52.582;13.406;2022-11-15T07:50:08;100851.06;;;17.03;42.33
37450;BME280;23309;52.582;13.406;2022-11-15T07:52:34;100856.50;;;17.42;43.20
37450;BME280;23309;52.582;13.406;2022-11-15T07:55:01;100852.84;;;17.65;41.21
37450;BME280;23309;52.582;13.406;2022-11-15T07:57:27;100850.50;;;17.93;41.13
37450;BME280;23309;52.582;13.406;2022-11-15T07:59:53;100843.81;;;18.26;40.66
37450;BME280;23309;52.582;13.406;2022-11-15T08:02:19;100857.28;;;18.71;40.96
37450;BME280;23309;52.582;13.406;2022-11-15T08:04:46;100837.34;;;19.01;39.92
37450;BME280;23309;52.582;13.406;2022-11-15T08:07:16;100851.06;;;19.43;39.27
37450;BME280;23309;52.582;13.406;2022-11-15T08:09:42;100842.41;;;19.69;39.05
37450;BME280;23309;52.582;13.406;2022-11-15T08:12:09;100854.19;;;19.97;38.64
37450;BME280;23309;52.582;13.406;2022-11-15T08:14:37;100841.97;;;20.22;37.42
37450;BME280;23309;52.582;13.406;2022-11-15T08:17:03;100839.41;;;20.41;37.65
37450;BME280;23309;52.582;13.406;2022-11-15T08:19:29;100817.34;;;20.51;38.65
37450;BME280;23309;52.582;13.406;2022-11-15T08:21:55;100835.13;;;20.81;37.27
37450;BME280;23309;52.582;13.406;2022-11-15T08:24:24;100839.53;;;21.09;36.33
37450;BME280;23309;52.582;13.406;2022-11-15T08:26:50;100840.28;;;21.37;36.16
37450;BME280;23309;52.582;13.406;2022-11-15T08:29:16;100835.34;;;21.60;35.71
37450;BME280;23309;52.582;13.406;2022-11-15T08:31:42;100835.28;;;21.88;34.54
37450;BME280;23309;52.582;13.406;2022-11-15T08:34:08;100835.09;;;22.02;34.58
37450;BME280;23309;52.582;13.406;2022-11-15T08:36:35;100834.09;;;22.29;33.72
37450;BME280;23309;52.582;13.406;2022-11-15T08:39:01;100844.59;;;22.45;33.55
37450;BME280;23309;52.582;13.406;2022-11-15T08:41:33;100839.13;;;22.71;33.19
37450;BME280;23309;52.582;13.406;2022-11-15T08:44:00;100832.00;;;22.83;32.16
37450;BME280;23309;52.582;13.406;2022-11-15T08:46:26;100831.13;;;23.02;32.11
37450;BME280;23309;52.582;13.406;2022-11-15T08:48:52;100836.09;;;23.25;31.85
37450;BME280;23309;52.582;13.406;2022-11-15T08:51:19;100840.44;;;23.45;31.38
37450;BME280;23309;52.582;13.406;2022-11-15T08:53:45;100836.81;;;23.64;30.91
37450;BME280;23309;52.582;13.406;2022-11-15T08:56:14;100825.66;;;23.66;30.57
37450;BME280;23309;52.582;13.406;2022-11-15T08:58:43;100826.25;;;23.74;30.95
37450;BME280;23309;52.582;13.406;2022-11-15T09:01:16;100824.94;;;23.90;30.35
37450;BME280;23309;52.582;13.406;2022-11-15T09:03:43;100843.69;;;24.11;30.07
37450;BME280;23309;52.582;13.406;2022-11-15T09:06:09;100838.03;;;24.06;30.03
37450;BME280;23309;52.582;13.406;2022-11-15T09:08:36;100832.75;;;24.11;29.70
37450;BME280;23309;52.582;13.406;2022-11-15T09:11:05;100817.31;;;23.98;29.95
37450;BME280;23309;52.582;13.406;2022-11-15T09:13:31;100838.72;;;24.01;29.92
37450;BME280;23309;52.582;13.406;2022-11-15T09:16:00;100816.53;;;23.91;30.86
37450;BME280;23309;52.582;13.406;2022-11-15T09:18:27;100826.13;;;24.00;30.25
37450;BME280;23309;52.582;13.406;2022-11-15T09:20:55;100833.78;;;24.16;30.20
37450;BME280;23309;52.582;13.406;2022-11-15T09:23:22;100813.50;;;24.30;30.05
37450;BME280;23309;52.582;13.406;2022-11-15T09:25:49;100816.25;;;24.55;29.62
37450;BME280;23309;52.582;13.406;2022-11-15T09:28:15;100828.25;;;24.78;28.79
37450;BME280;23309;52.582;13.406;2022-11-15T09:30:41;100840.19;;;24.84;28.62
37450;BME280;23309;52.582;13.406;2022-11-15T09:33:12;100833.22;;;24.88;29.04
37450;BME280;23309;52.582;13.406;2022-11-15T09:35:38;100822.88;;;24.90;28.72
37450;BME280;23309;52.582;13.406;2022-11-15T09:38:04;100834.59;;;25.15;28.64
37450;BME280;23309;52.582;13.406;2022-11-15T09:40:32;100838.25;;;25.27;28.44
37450;BME280;23309;52.582;13.406;2022-11-15T09:43:27;100827.09;;;25.28;28.24
37450;BME280;23309;52.582;13.406;2022-11-15T09:46:04;100827.47;;;25.32;28.53
37450;BME280;23309;52.582;13.406;2022-11-15T09:48:55;100821.75;;;25.51;28.08
37450;BME280;23309;52.582;13.406;2022-11-15T09:51:28;100826.97;;;25.71;27.96
37450;BME280;23309;52.582;13.406;2022-11-15T09:54:07;100823.56;;;25.94;27.84
37450;BME280;23309;52.582;13.406;2022-11-15T09:56:40;100823.72;;;26.10;27.37
37450;BME280;23309;52.582;13.406;2022-11-15T09:59:49;100821.16;;;26.38;27.00
37450;BME280;23309;52.582;13.406;2022-11-15T10:02:33;100811.28;;;26.37;27.39
37450;BME280;23309;52.582;13.406;2022-11-15T10:05:13;100822.59;;;26.52;26.73
37450;BME280;23309;52.582;13.406;2022-11-15T10:07:48;100811.81;;;26.69;26.81
37450;BME280;23309;52.582;13.406;2022-11-15T10:10:24;100810.75;;;26.81;26.48
37450;BME280;23309;52.582;13.406;2022-11-15T10:12:52;100815.50;;;26.97;26.13
37450;BME280;23309;52.582;13.406;2022-11-15T10:15:20;100812.16;;;26.95;25.93
37450;BME280;23309;52.582;13.406;2022-11-15T10:18:16;100804.50;;;27.09;26.25
37450;BME280;23309;52.582;13.406;2022-11-15T10:20:48;100785.44;;;27.02;26.00
37450;BME280;23309;52.582;13.406;2022-11-15T10:23:18;100785.41;;;27.14;25.93
37450;BME280;23309;52.582;13.406;2022-11-15T10:25:44;100786.97;;;27.33;25.31
37450;BME280;23309;52.582;13.406;2022-11-15T10:28:16;100788.13;;;27.48;25.55
37450;BME280;23309;52.582;13.406;2022-11-15T10:30:45;100779.94;;;27.65;25.24
37450;BME280;23309;52.582;13.406;2022-11-15T10:33:25;100775.66;;;28.13;24.89
37450;BME280;23309;52.582;13.406;2022-11-15T10:36:23;100776.34;;;28.53;24.51
37450;BME280;23309;52.582;13.406;2022-11-15T10:38:59;100765.13;;;28.55;24.74
37450;BME280;23309;52.582;13.406;2022-11-15T10:41:39;100764.25;;;28.71;24.29
37450;BME280;23309;52.582;13.406;2022-11-15T10:44:19;100764.78;;;28.89;23.53
37450;BME280;23309;52.582;13.406;2022-11-15T10:46:47;100754.03;;;28.88;23.97
37450;BME280;23309;52.582;13.406;2022-11-15T10:49:16;100749.94;;;29.07;23.76
37450;BME280;23309;52.582;13.406;2022-11-15T10:51:48;100739.75;;;29.29;23.60
37450;BME280;23309;52.582;13.406;2022-11-15T10:54:21;100747.09;;;29.66;23.26
37450;BME280;23309;52.582;13.406;2022-11-15T10:56:51;100735.03;;;29.72;23.08
37450;BME280;23309;52.582;13.406;2022-11-15T10:59:26;100738.78;;;29.88;22.93
37450;BME280;23309;52.582;13.406;2022-11-15T11:01:54;100725.34;;;29.91;22.45
37450;BME280;23309;52.582;13.406;2022-11-15T11:04:21;100733.16;;;30.04;22.56
37450;BME280;23309;52.582;13.406;2022-11-15T11:06:51;100727.53;;;30.21;22.83
37450;BME280;23309;52.582;13.406;2022-11-15T11:09:28;100721.03;;;30.37;22.53
37450;BME280;23309;52.582;13.406;2022-11-15T11:11:56;100726.31;;;30.43;22.42
37450;BME280;23309;52.582;13.406;2022-11-15T11:14:25;100711.72;;;30.43;22.44
37450;BME280;23309;52.582;13.406;2022-11-15T11:16:55;100706.69;;;30.35;22.36
37450;BME280;23309;52.582;13.406;2022-11-15T11:19:46;100716.38;;;30.37;22.39
37450;BME280;23309;52.582;13.406;2022-11-15T11:22:26;100713.31;;;30.34;22.79
37450;BME280;23309;52.582;13.406;2022-11-15T11:25:17;100702.94;;;30.51;22.45
37450;BME280;23309;52.582;13.406;2022-11-15T11:27:59;100711.66;;;30.74;21.87
37450;BME280;23309;52.582;13.406;2022-11-15T11:30:43;100708.66;;;30.76;22.37
37450;BME280;23309;52.582;13.406;2022-11-15T11:33:17;100712.78;;;30.78;22.07
37450;BME280;23309;52.582;13.406;2022-11-15T11:35:55;100694.09;;;30.85;21.96
37450;BME280;23309;52.582;13.406;2022-11-15T11:38:44;100705.44;;;30.99;21.92
37450;BME280;23309;52.582;13.406;2022-11-15T11:41:26;100696.31;;;30.98;21.43
37450;BME280;23309;52.582;13.406;2022-11-15T11:44:08;100706.34;;;31.14;21.67
37450;BME280;23309;52.582;13.406;2022-11-15T11:46:51;100707.97;;;31.05;21.66
37450;BME280;23309;52.582;13.406;2022-11-15T11:49:25;100706.56;;;30.98;21.36
37450;BME280;23309;52.582;13.406;2022-11-15T11:51:58;100699.94;;;30.99;21.49
37450;BME280;23309;52.582;13.406;2022-11-15T11:54:40;100696.38;;;31.03;21.45
37450;BME280;23309;52.582;13.406;2022-11-15T11:57:17;100689.97;;;30.88;21.70
37450;BME280;23309;52.582;13.406;2022-11-15T11:59:55;100689.38;;;30.86;21.58
37450;BME280;23309;52.582;13.406;2022-11-15T12:02:29;100696.63;;;30.97;21.73
37450;BME280;23309;52.582;13.406;2022-11-15T12:05:08;100693.03;;;30.96;21.81
37450;BME280;23309;52.582;13.406;2022-11-15T12:07:38;100677.78;;;30.79;21.92
37450;BME280;23309;52.582;13.406;2022-11-15T12:10:18;100678.84;;;30.78;21.85
37450;BME280;23309;52.582;13.406;2022-11-15T12:12:55;100679.59;;;30.63;21.87
37450;BME280;23309;52.582;13.406;2022-11-15T12:15:25;100676.69;;;30.80;21.93
37450;BME280;23309;52.582;13.406;2022-11-15T12:17:55;100681.63;;;30.78;21.75
37450;BME280;23309;52.582;13.406;2022-11-15T12:20:23;100672.28;;;30.42;22.33
37450;BME280;23309;52.582;13.406;2022-11-15T12:23:01;100675.03;;;30.37;22.38
37450;BME280;23309;52.582;13.406;2022-11-15T12:25:40;100660.66;;;30.35;22.77
37450;BME280;23309;52.582;13.406;2022-11-15T12:28:15;100666.31;;;30.55;22.56
37450;BME280;23309;52.582;13.406;2022-11-15T12:30:46;100659.38;;;30.48;22.05
37450;BME280;23309;52.582;13.406;2022-11-15T12:33:42;100656.44;;;30.64;22.30
37450;BME280;23309;52.582;13.406;2022-11-15T12:36:11;100669.03;;;30.45;22.58
37450;BME280;23309;52.582;13.406;2022-11-15T12:38:57;100657.16;;;30.45;22.25
37450;BME280;23309;52.582;13.406;2022-11-15T12:41:28;100647.13;;;30.29;22.44
37450;BME280;23309;52.582;13.406;2022-11-15T12:43:55;100655.97;;;30.31;22.45
37450;BME280;23309;52.582;13.406;2022-11-15T12:49:46;100654.78;;;30.17;23.07
37450;BME280;23309;52.582;13.406;2022-11-15T12:52:12;100633.59;;;29.91;22.81
37450;BME280;23309;52.582;13.406;2022-11-15T12:54:56;100640.25;;;29.95;23.02
37450;BME280;23309;52.582;13.406;2022-11-15T12:57:49;100635.03;;;29.98;23.22
37450;BME280;23309;52.582;13.406;2022-11-15T13:00:42;100631.91;;;29.85;23.25
37450;BME280;23309;52.582;13.406;2022-11-15T13:03:25;100620.00;;;29.79;23.33